createdAt,value
2023-07-25T00:01:56.612Z,1.30
2023-07-25T00:04:23.432Z,1.30
2023-07-25T00:06:50.130Z,1.10
2023-07-25T00:09:16.722Z,1.52
2023-07-25T00:11:43.344Z,1.10
2023-07-25T00:14:09.950Z,1.27
2023-07-25T00:16:36.898Z,1.40
2023-07-25T00:19:03.687Z,1.27
2023-07-25T00:21:30.658Z,1.00
2023-07-25T00:23:57.933Z,0.85
2023-07-25T00:26:24.562Z,1.13
2023-07-25T00:28:51.391Z,1.23
2023-07-25T00:31:18.063Z,1.20
2023-07-25T00:33:44.932Z,1.00
2023-07-25T00:36:11.669Z,1.15
2023-07-25T00:38:38.266Z,1.30
2023-07-25T00:41:04.895Z,1.13
2023-07-25T00:43:31.504Z,1.10
2023-07-25T00:45:58.590Z,1.48
2023-07-25T00:48:25.616Z,1.20
2023-07-25T00:50:52.529Z,1.20
2023-07-25T00:53:19.557Z,1.35
2023-07-25T00:55:47.960Z,1.30
2023-07-25T00:58:14.923Z,1.57
2023-07-25T01:00:41.732Z,1.13
2023-07-25T01:03:08.756Z,1.20
2023-07-25T01:05:38.502Z,1.17
2023-07-25T01:08:05.776Z,1.20
2023-07-25T01:10:33.637Z,1.30
2023-07-25T01:13:00.287Z,1.30
2023-07-25T01:15:29.492Z,1.27
2023-07-25T01:17:56.672Z,1.30
2023-07-25T01:20:24.514Z,1.20
2023-07-25T01:22:52.361Z,1.20
2023-07-25T01:25:19.395Z,1.20
2023-07-25T01:27:46.188Z,1.38
2023-07-25T01:30:12.989Z,1.23
2023-07-25T01:32:39.643Z,0.95
2023-07-25T01:35:07.805Z,1.10
2023-07-25T01:37:34.495Z,1.40
2023-07-25T01:40:01.181Z,1.30
2023-07-25T01:42:27.876Z,1.30
2023-07-25T01:44:54.542Z,1.20
2023-07-25T01:47:26.551Z,1.25
2023-07-25T01:49:54.378Z,1.50
2023-07-25T01:52:21.804Z,1.35
2023-07-25T01:54:50.665Z,1.40
2023-07-25T01:57:17.505Z,1.30
2023-07-25T01:59:44.304Z,1.30
2023-07-25T02:02:11.084Z,1.35
2023-07-25T02:04:37.830Z,1.40
2023-07-25T02:07:04.848Z,1.55
2023-07-25T02:09:32.018Z,1.55
2023-07-25T02:11:59.728Z,1.30
2023-07-25T02:14:26.579Z,1.40
2023-07-25T02:16:53.986Z,1.40
2023-07-25T02:19:20.939Z,1.30
2023-07-25T02:21:47.650Z,1.30
2023-07-25T02:24:14.330Z,1.40
2023-07-25T02:26:41.131Z,1.40
2023-07-25T02:29:07.997Z,1.70
2023-07-25T02:31:34.892Z,1.63
2023-07-25T02:34:02.904Z,1.65
2023-07-25T02:36:29.673Z,1.20
2023-07-25T02:38:56.295Z,1.40
2023-07-25T02:41:25.253Z,1.52
2023-07-25T02:43:52.138Z,1.60
2023-07-25T02:46:18.861Z,1.38
2023-07-25T02:48:45.589Z,1.60
2023-07-25T02:51:13.691Z,1.60
2023-07-25T02:53:40.582Z,1.58
2023-07-25T02:56:07.287Z,1.30
2023-07-25T02:58:34.077Z,1.40
2023-07-25T03:01:01.121Z,1.10
2023-07-25T03:03:27.949Z,1.55
2023-07-25T03:05:55.011Z,1.30
2023-07-25T03:08:21.933Z,1.52
2023-07-25T03:10:48.735Z,1.63
2023-07-25T03:13:15.592Z,1.40
2023-07-25T03:15:42.456Z,1.40
2023-07-25T03:18:09.532Z,1.58
2023-07-25T03:20:36.305Z,1.67
2023-07-25T03:23:03.104Z,1.42
2023-07-25T03:25:29.928Z,1.50
2023-07-25T03:27:56.603Z,1.70
2023-07-25T03:30:23.281Z,1.65
2023-07-25T03:32:50.055Z,1.48
2023-07-25T03:35:16.884Z,1.50
2023-07-25T03:37:43.642Z,1.48
2023-07-25T03:40:10.625Z,1.50
2023-07-25T03:42:37.456Z,1.30
2023-07-25T03:45:04.383Z,1.50
2023-07-25T03:47:31.327Z,1.92
2023-07-25T03:49:58.073Z,1.48
2023-07-25T03:52:24.961Z,1.35
2023-07-25T03:54:51.956Z,1.50
2023-07-25T03:57:18.952Z,1.50
2023-07-25T03:59:45.752Z,1.60
2023-07-25T04:02:12.580Z,1.65
2023-07-25T04:04:39.439Z,1.70
2023-07-25T04:07:06.242Z,1.70
2023-07-25T04:09:32.906Z,1.65
2023-07-25T04:11:59.622Z,1.65
2023-07-25T04:14:26.274Z,1.58
2023-07-25T04:16:53.005Z,1.70
2023-07-25T04:19:19.840Z,1.58
2023-07-25T04:21:46.603Z,1.70
2023-07-25T04:24:13.270Z,1.60
2023-07-25T04:26:40.344Z,1.70
2023-07-25T04:29:07.237Z,1.75
2023-07-25T04:31:35.678Z,1.35
2023-07-25T04:34:02.452Z,1.67
2023-07-25T04:36:30.552Z,1.70
2023-07-25T04:38:58.010Z,1.38
2023-07-25T04:41:24.932Z,1.40
2023-07-25T04:43:51.934Z,1.42
2023-07-25T04:46:18.666Z,1.60
2023-07-25T04:48:45.348Z,1.52
2023-07-25T04:51:12.271Z,1.60
2023-07-25T04:53:38.963Z,1.60
2023-07-25T04:56:05.974Z,1.63
2023-07-25T04:58:32.678Z,1.65
2023-07-25T05:00:59.409Z,1.40
2023-07-25T05:03:27.330Z,1.23
2023-07-25T05:05:56.570Z,1.20
2023-07-25T05:10:52.689Z,1.30
2023-07-25T05:13:19.881Z,1.40
2023-07-25T05:15:46.982Z,1.50
2023-07-25T05:18:13.757Z,1.60
2023-07-25T05:20:40.577Z,1.60
2023-07-25T05:23:07.336Z,1.20
2023-07-25T05:25:34.237Z,1.50
2023-07-25T05:28:01.093Z,1.60
2023-07-25T05:30:27.996Z,1.42
2023-07-25T05:32:54.908Z,1.52
2023-07-25T05:35:21.719Z,1.48
2023-07-25T05:37:48.518Z,1.50
2023-07-25T05:40:15.483Z,1.40
2023-07-25T05:42:42.351Z,1.40
2023-07-25T05:45:09.483Z,1.40
2023-07-25T05:47:36.287Z,1.48
2023-07-25T05:50:03.760Z,1.38
2023-07-25T05:52:30.623Z,1.45
2023-07-25T05:54:57.540Z,1.35
2023-07-25T05:57:24.431Z,1.60
2023-07-25T05:59:51.323Z,1.67
2023-07-25T06:02:18.149Z,1.65
2023-07-25T06:04:47.302Z,1.50
2023-07-25T06:07:15.455Z,1.60
2023-07-25T06:09:42.208Z,1.90
2023-07-25T06:12:09.708Z,1.50
2023-07-25T06:14:36.883Z,1.52
2023-07-25T06:17:04.302Z,1.63
2023-07-25T06:19:31.176Z,1.55
2023-07-25T06:21:57.757Z,1.40
2023-07-25T06:24:24.509Z,1.73
2023-07-25T06:26:51.269Z,1.20
2023-07-25T06:29:17.921Z,1.45
2023-07-25T06:31:44.557Z,1.42
2023-07-25T06:34:11.209Z,1.88
2023-07-25T06:36:37.861Z,1.70
2023-07-25T06:39:04.588Z,1.40
2023-07-25T06:41:31.527Z,1.50
2023-07-25T06:44:02.822Z,1.42
2023-07-25T06:46:30.138Z,1.63
2023-07-25T06:48:57.183Z,1.30
2023-07-25T06:51:23.886Z,1.50
2023-07-25T06:53:50.579Z,1.65
2023-07-25T06:56:17.237Z,1.70
2023-07-25T06:58:43.978Z,1.50
2023-07-25T07:01:10.705Z,1.50
2023-07-25T07:03:37.509Z,1.30
2023-07-25T07:06:04.294Z,1.70
2023-07-25T07:08:30.981Z,1.30
2023-07-25T07:10:57.607Z,1.40
2023-07-25T07:13:24.781Z,1.52
2023-07-25T07:15:52.062Z,1.25
2023-07-25T07:18:18.953Z,1.35
2023-07-25T07:20:49.951Z,1.70
2023-07-25T07:23:17.708Z,1.20
2023-07-25T07:25:45.653Z,1.77
2023-07-25T07:28:13.454Z,1.40
2023-07-25T07:30:40.381Z,1.40
2023-07-25T07:33:07.048Z,1.40
2023-07-25T07:35:33.789Z,1.52
2023-07-25T07:38:00.701Z,2.00
2023-07-25T07:40:27.660Z,1.40
2023-07-25T07:42:54.493Z,1.63
2023-07-25T07:45:23.093Z,1.77
2023-07-25T07:47:49.949Z,1.42
2023-07-25T07:50:16.741Z,1.38
2023-07-25T07:52:44.358Z,1.55
2023-07-25T07:55:12.136Z,1.67
2023-07-25T07:57:44.191Z,1.52
2023-07-25T08:00:13.035Z,1.40
2023-07-25T08:02:39.844Z,1.40
2023-07-25T08:05:07.157Z,1.50
2023-07-25T08:07:33.969Z,1.10
2023-07-25T08:10:00.767Z,1.50
2023-07-25T08:12:27.567Z,1.40
2023-07-25T08:14:54.239Z,1.45
2023-07-25T08:17:21.114Z,1.52
2023-07-25T08:19:48.071Z,1.40
2023-07-25T08:22:14.954Z,1.92
2023-07-25T08:24:42.159Z,1.15
2023-07-25T08:27:09.469Z,1.38
2023-07-25T08:29:40.994Z,1.20
2023-07-25T08:32:10.968Z,1.23
2023-07-25T08:34:38.829Z,1.50
2023-07-25T08:37:07.239Z,1.33
2023-07-25T08:39:35.174Z,1.27
2023-07-25T08:42:05.663Z,1.40
2023-07-25T08:44:34.010Z,1.15
2023-07-25T08:47:06.267Z,1.60
2023-07-25T08:49:36.460Z,1.00
2023-07-25T08:52:05.654Z,1.30
2023-07-25T08:57:01.475Z,1.10
2023-07-25T08:59:28.797Z,1.48
2023-07-25T09:01:55.931Z,1.52
2023-07-25T09:04:24.833Z,1.27
2023-07-25T09:06:51.830Z,1.13
2023-07-25T09:09:19.099Z,1.30
2023-07-25T09:11:46.042Z,1.20
2023-07-25T09:14:13.958Z,1.30
2023-07-25T09:16:41.194Z,1.08
2023-07-25T09:19:08.168Z,1.30
2023-07-25T09:21:46.964Z,1.40
2023-07-25T09:24:14.333Z,0.98
2023-07-25T09:26:42.764Z,1.45
2023-07-25T09:29:09.659Z,1.00
2023-07-25T09:31:47.503Z,1.10
2023-07-25T09:34:18.928Z,0.82
2023-07-25T09:36:48.069Z,1.08
2023-07-25T09:41:42.391Z,1.30
2023-07-25T09:44:09.401Z,1.00
2023-07-25T09:46:36.154Z,1.10
2023-07-25T09:49:03.619Z,1.17
2023-07-25T09:51:32.406Z,1.10
2023-07-25T09:53:59.299Z,1.17
2023-07-25T09:56:27.465Z,1.02
2023-07-25T10:01:26.877Z,1.23
2023-07-25T10:03:54.498Z,1.00
2023-07-25T10:06:21.897Z,1.15
2023-07-25T10:08:48.901Z,1.17
2023-07-25T10:11:16.058Z,1.00
2023-07-25T10:13:43.442Z,1.13
2023-07-25T10:16:15.507Z,0.93
2023-07-25T10:18:42.853Z,1.30
2023-07-25T10:21:12.842Z,1.17
2023-07-25T10:23:40.284Z,1.38
2023-07-25T10:26:14.715Z,1.50
2023-07-25T10:28:42.263Z,1.30
2023-07-25T10:31:22.657Z,1.20
2023-07-25T10:33:56.572Z,1.00
2023-07-25T10:36:24.777Z,1.20
2023-07-25T10:38:53.640Z,1.30
2023-07-25T10:41:21.567Z,1.13
2023-07-25T10:43:53.633Z,1.20
2023-07-25T10:46:22.867Z,1.20
2023-07-25T10:51:19.035Z,1.00
2023-07-25T10:54:11.458Z,1.40
2023-07-25T10:56:39.062Z,1.05
2023-07-25T10:59:08.802Z,1.30
2023-07-25T11:01:49.563Z,1.00
2023-07-25T11:04:32.536Z,1.30
2023-07-25T11:07:11.214Z,1.10
2023-07-25T11:09:43.081Z,1.00
2023-07-25T11:12:11.781Z,1.00
2023-07-25T11:14:45.890Z,1.00
2023-07-25T11:17:13.644Z,1.30
2023-07-25T11:19:40.463Z,0.98
2023-07-25T11:22:11.815Z,0.82
2023-07-25T11:24:47.412Z,1.00
2023-07-25T11:27:14.743Z,1.00
2023-07-25T11:29:42.467Z,1.10
2023-07-25T11:32:09.833Z,1.10
2023-07-25T11:34:36.451Z,1.20
2023-07-25T11:37:12.338Z,1.20
2023-07-25T11:39:39.235Z,1.00
2023-07-25T11:42:09.199Z,1.20
2023-07-25T11:44:36.037Z,1.23
2023-07-25T11:47:03.000Z,1.20
2023-07-25T11:49:47.393Z,0.88
2023-07-25T11:52:16.614Z,1.52
2023-07-25T11:54:43.353Z,1.08
2023-07-25T11:57:11.255Z,0.80
2023-07-25T11:59:42.253Z,1.20
2023-07-25T12:02:09.806Z,1.00
2023-07-25T12:04:44.422Z,1.05
2023-07-25T12:07:11.819Z,1.25
2023-07-25T12:09:38.529Z,1.02
2023-07-25T12:12:12.883Z,1.00
2023-07-25T12:14:39.618Z,1.20
2023-07-25T12:17:06.483Z,1.20
2023-07-25T12:19:34.190Z,1.00
2023-07-25T12:22:09.106Z,0.95
2023-07-25T12:24:42.319Z,1.10
2023-07-25T12:27:19.699Z,1.00
2023-07-25T12:29:46.477Z,1.10
2023-07-25T12:32:14.619Z,1.17
2023-07-25T12:34:41.720Z,1.30
2023-07-25T12:37:08.514Z,1.00
2023-07-25T12:39:35.285Z,1.33
2023-07-25T12:42:01.972Z,1.58
2023-07-25T12:44:28.689Z,1.45
2023-07-25T12:46:55.365Z,1.17
2023-07-25T12:49:22.020Z,1.35
2023-07-25T12:51:48.833Z,1.20
2023-07-25T12:54:15.841Z,1.30
2023-07-25T12:56:42.548Z,1.20
2023-07-25T12:59:09.374Z,1.40
2023-07-25T13:01:36.711Z,1.33
2023-07-25T13:04:03.843Z,1.20
2023-07-25T13:06:30.629Z,1.20
2023-07-25T13:08:57.310Z,0.95
2023-07-25T13:11:23.947Z,1.30
2023-07-25T13:13:50.712Z,1.48
2023-07-25T13:16:17.822Z,1.05
2023-07-25T13:18:44.468Z,1.30
2023-07-25T13:21:11.339Z,1.40
2023-07-25T13:23:38.109Z,1.10
2023-07-25T13:26:04.937Z,0.98
2023-07-25T13:28:31.812Z,1.08
2023-07-25T13:30:59.150Z,1.23
2023-07-25T13:33:26.057Z,1.02
2023-07-25T13:35:52.939Z,1.30
2023-07-25T13:38:19.800Z,1.00
2023-07-25T13:40:46.559Z,1.27
2023-07-25T13:43:13.492Z,1.23
2023-07-25T13:45:51.910Z,1.08
2023-07-25T13:48:19.776Z,1.00
2023-07-25T13:50:53.548Z,1.13
2023-07-25T13:53:21.943Z,0.90
2023-07-25T13:55:48.918Z,0.90
2023-07-25T14:00:45.143Z,0.90
2023-07-25T14:03:11.895Z,0.98
2023-07-25T14:05:38.600Z,1.05
2023-07-25T14:08:08.425Z,1.05
2023-07-25T14:10:36.821Z,0.90
2023-07-25T14:13:03.745Z,0.77
2023-07-25T14:15:31.773Z,0.90
2023-07-25T14:17:58.985Z,0.90
2023-07-25T14:20:26.273Z,0.93
2023-07-25T14:22:53.034Z,0.80
2023-07-25T14:25:20.000Z,1.08
2023-07-25T14:27:46.733Z,0.93
2023-07-25T14:30:13.665Z,0.90
2023-07-25T14:32:40.342Z,0.57
2023-07-25T14:35:07.434Z,0.80
2023-07-25T14:37:44.093Z,0.68
2023-07-25T14:40:20.040Z,0.80
2023-07-25T14:42:48.037Z,0.60
2023-07-25T14:45:15.114Z,0.80
2023-07-25T14:47:42.162Z,0.80
2023-07-25T14:50:09.632Z,0.80
2023-07-25T14:52:36.494Z,0.73
2023-07-25T14:55:03.586Z,1.38
2023-07-25T14:57:31.650Z,1.10
2023-07-25T14:59:58.555Z,1.07
2023-07-25T15:02:25.436Z,0.90
2023-07-25T15:04:52.457Z,0.80
2023-07-25T15:07:19.402Z,0.65
2023-07-25T15:09:46.250Z,0.80
2023-07-25T15:12:13.045Z,0.80
2023-07-25T15:14:39.685Z,0.70
2023-07-25T15:17:06.538Z,0.73
2023-07-25T15:19:33.546Z,0.60
2023-07-25T15:22:00.327Z,0.70
2023-07-25T15:24:27.175Z,0.85
2023-07-25T15:26:54.069Z,0.80
2023-07-25T15:29:21.042Z,0.75
2023-07-25T15:31:48.541Z,0.77
2023-07-25T15:34:15.369Z,0.95
2023-07-25T15:36:43.414Z,1.10
2023-07-25T15:39:12.326Z,0.90
2023-07-25T15:41:39.029Z,0.75
2023-07-25T15:44:05.833Z,0.77
2023-07-25T15:46:32.705Z,0.80
2023-07-25T15:48:59.396Z,1.00
2023-07-25T15:51:26.216Z,0.68
2023-07-25T15:53:52.930Z,0.90
2023-07-25T15:56:19.656Z,0.80
2023-07-25T15:58:48.017Z,0.68
2023-07-25T16:01:14.934Z,0.73
2023-07-25T16:03:46.075Z,0.60
2023-07-25T16:06:13.614Z,0.70
2023-07-25T16:08:40.428Z,0.60
2023-07-25T16:11:07.495Z,0.60
2023-07-25T16:13:41.380Z,0.52
2023-07-25T16:16:08.441Z,0.80
2023-07-25T16:18:35.200Z,0.90
2023-07-25T16:21:02.466Z,0.85
2023-07-25T16:23:29.321Z,1.10
2023-07-25T16:25:57.549Z,0.80
2023-07-25T16:28:24.219Z,0.90
2023-07-25T16:30:53.097Z,0.60
2023-07-25T16:33:25.719Z,0.70
2023-07-25T16:35:52.487Z,0.65
2023-07-25T16:38:19.400Z,0.50
2023-07-25T16:40:46.302Z,0.80
2023-07-25T16:43:12.991Z,0.73
2023-07-25T16:45:39.783Z,0.90
2023-07-25T16:48:06.604Z,0.80
2023-07-25T16:50:33.489Z,0.50
2023-07-25T16:53:01.272Z,0.70
2023-07-25T16:55:27.934Z,0.60
2023-07-25T16:57:56.460Z,0.68
2023-07-25T17:00:23.125Z,0.50
2023-07-25T17:02:49.907Z,0.70
2023-07-25T17:05:16.616Z,0.70
2023-07-25T17:07:43.554Z,0.77
2023-07-25T17:10:10.610Z,0.60
2023-07-25T17:12:37.363Z,0.90
2023-07-25T17:15:04.821Z,0.60
2023-07-25T17:17:31.628Z,0.90
2023-07-25T17:19:58.379Z,0.70
2023-07-25T17:22:25.538Z,0.70
2023-07-25T17:24:52.353Z,0.77
2023-07-25T17:27:19.272Z,0.50
2023-07-25T17:29:46.079Z,0.50
2023-07-25T17:32:12.914Z,0.77
2023-07-25T17:34:39.679Z,0.98
2023-07-25T17:37:08.005Z,0.70
2023-07-25T17:39:34.924Z,0.60
2023-07-25T17:42:01.817Z,0.60
2023-07-25T17:44:28.543Z,0.40
2023-07-25T17:46:55.361Z,0.90
2023-07-25T17:49:22.216Z,0.68
2023-07-25T17:51:48.866Z,0.55
2023-07-25T17:54:15.526Z,0.70
2023-07-25T17:56:42.212Z,0.65
2023-07-25T17:59:08.868Z,0.60
2023-07-25T18:01:35.864Z,0.75
2023-07-25T18:04:02.856Z,0.47
2023-07-25T18:06:29.796Z,0.40
2023-07-25T18:08:56.945Z,0.50
2023-07-25T18:11:23.893Z,0.40
2023-07-25T18:13:51.515Z,0.50
2023-07-25T18:16:18.360Z,0.43
2023-07-25T18:18:45.107Z,0.60
2023-07-25T18:21:12.032Z,0.50
2023-07-25T18:23:38.874Z,0.60
2023-07-25T18:26:08.402Z,0.50
2023-07-25T18:28:37.053Z,0.60
2023-07-25T18:31:04.175Z,0.63
2023-07-25T18:33:31.436Z,0.50
2023-07-25T18:35:58.289Z,0.50
2023-07-25T18:38:24.898Z,0.57
2023-07-25T18:40:51.622Z,0.73
2023-07-25T18:43:20.479Z,0.60
2023-07-25T18:48:15.070Z,0.70
2023-07-25T18:50:44.574Z,0.73
2023-07-25T18:53:11.316Z,0.52
2023-07-25T18:55:40.270Z,0.50
2023-07-25T19:00:33.847Z,0.60
2023-07-25T19:03:00.708Z,0.50
2023-07-25T19:05:27.620Z,0.88
2023-07-25T19:07:54.270Z,0.60
2023-07-25T19:10:20.941Z,0.60
2023-07-25T19:12:47.663Z,0.47
2023-07-25T19:15:14.431Z,0.50
2023-07-25T19:17:41.180Z,0.45
2023-07-25T19:20:08.453Z,0.50
2023-07-25T19:22:35.680Z,0.80
2023-07-25T19:25:02.420Z,0.45
2023-07-25T19:27:29.252Z,0.40
2023-07-25T19:29:56.050Z,0.40
2023-07-25T19:32:23.803Z,0.60
2023-07-25T19:34:50.598Z,0.47
2023-07-25T19:37:17.541Z,0.52
2023-07-25T19:39:44.405Z,0.47
2023-07-25T19:42:11.341Z,0.50
2023-07-25T19:44:38.190Z,0.50
2023-07-25T19:47:06.246Z,0.60
2023-07-25T19:49:32.999Z,0.50
2023-07-25T19:51:59.956Z,0.70
2023-07-25T19:54:27.231Z,0.50
2023-07-25T19:56:54.162Z,0.45
2023-07-25T19:59:21.213Z,0.40
2023-07-25T20:01:48.200Z,0.47
2023-07-25T20:04:14.951Z,0.60
2023-07-25T20:06:41.734Z,0.60
2023-07-25T20:09:08.412Z,0.65
2023-07-25T20:11:35.152Z,0.60
2023-07-25T20:14:03.212Z,0.43
2023-07-25T20:16:30.369Z,0.70
2023-07-25T20:18:57.598Z,0.55
2023-07-25T20:21:24.440Z,0.70
2023-07-25T20:23:51.443Z,0.88
2023-07-25T20:26:19.122Z,0.75
2023-07-25T20:28:45.941Z,0.70
2023-07-25T20:31:13.673Z,0.63
2023-07-25T20:33:42.293Z,0.60
2023-07-25T20:36:09.460Z,0.55
2023-07-25T20:38:36.202Z,0.80
2023-07-25T20:41:03.571Z,0.57
2023-07-25T20:43:30.806Z,0.80
2023-07-25T20:46:03.211Z,0.60
2023-07-25T20:48:31.953Z,0.70
2023-07-25T20:51:00.853Z,0.68
2023-07-25T20:53:27.506Z,0.70
2023-07-25T20:55:58.207Z,0.60
2023-07-25T20:58:25.368Z,0.77
2023-07-25T21:00:52.267Z,0.50
2023-07-25T21:03:19.252Z,0.60
2023-07-25T21:05:46.217Z,1.23
2023-07-25T21:08:13.202Z,0.80
2023-07-25T21:10:40.044Z,0.70
2023-07-25T21:13:06.787Z,0.60
2023-07-25T21:15:33.465Z,0.82
2023-07-25T21:18:12.145Z,0.88
2023-07-25T21:20:41.187Z,0.80
2023-07-25T21:23:08.179Z,0.80
2023-07-25T21:25:38.316Z,0.63
2023-07-25T21:28:06.018Z,0.80
2023-07-25T21:30:32.836Z,0.75
2023-07-25T21:32:59.527Z,0.80
2023-07-25T21:35:26.337Z,0.93
2023-07-25T21:37:52.974Z,0.90
2023-07-25T21:40:19.746Z,0.80
2023-07-25T21:42:46.444Z,0.90
2023-07-25T21:45:13.266Z,0.70
2023-07-25T21:47:39.998Z,0.63
2023-07-25T21:50:06.987Z,0.70
2023-07-25T21:52:33.734Z,0.82
2023-07-25T21:55:00.803Z,0.60
2023-07-25T21:57:27.668Z,0.60
2023-07-25T21:59:54.655Z,0.90
2023-07-25T22:02:22.633Z,0.95
2023-07-25T22:04:49.350Z,0.90
2023-07-25T22:07:16.301Z,0.70
2023-07-25T22:09:43.012Z,0.80
2023-07-25T22:12:10.363Z,0.70
2023-07-25T22:14:37.349Z,0.60
2023-07-25T22:17:06.000Z,0.90
2023-07-25T22:19:32.685Z,0.75
2023-07-25T22:21:59.458Z,0.90
2023-07-25T22:24:26.981Z,0.80
2023-07-25T22:26:53.695Z,0.70
2023-07-25T22:29:20.428Z,0.77
2023-07-25T22:31:47.581Z,0.68
2023-07-25T22:34:14.324Z,0.60
2023-07-25T22:36:41.071Z,0.90
2023-07-25T22:39:07.837Z,0.95
2023-07-25T22:41:34.456Z,0.52
2023-07-25T22:44:01.148Z,0.70
2023-07-25T22:46:28.014Z,0.65
2023-07-25T22:48:54.923Z,0.70
2023-07-25T22:51:21.812Z,0.60
2023-07-25T22:53:49.178Z,0.88
2023-07-25T22:56:16.001Z,0.80
2023-07-25T22:58:42.934Z,0.80
2023-07-25T23:01:12.366Z,0.80
2023-07-25T23:03:40.712Z,0.88
2023-07-25T23:06:07.693Z,0.70
2023-07-25T23:08:34.465Z,0.80
2023-07-25T23:11:01.276Z,0.60
2023-07-25T23:13:29.271Z,0.70
2023-07-25T23:15:56.142Z,0.70
2023-07-25T23:18:22.880Z,0.90
2023-07-25T23:20:49.633Z,0.70
2023-07-25T23:23:16.987Z,0.90
2023-07-25T23:25:44.785Z,0.90
2023-07-25T23:28:12.204Z,0.80
2023-07-25T23:30:40.338Z,0.88
2023-07-25T23:33:07.144Z,0.70
2023-07-25T23:35:33.887Z,0.80
2023-07-25T23:38:00.963Z,0.70
2023-07-25T23:40:27.830Z,0.90
2023-07-25T23:42:54.663Z,0.80
2023-07-25T23:45:21.452Z,0.70
2023-07-25T23:47:48.092Z,0.90
2023-07-25T23:50:16.430Z,0.77
2023-07-25T23:52:43.113Z,0.80
2023-07-25T23:55:09.858Z,0.80
2023-07-25T23:57:36.596Z,0.70
